createdAt,value
2022-09-28T00:00:46.377Z,8.41
2022-09-28T00:03:13.134Z,8.41
2022-09-28T00:05:39.711Z,8.40
2022-09-28T00:08:06.074Z,8.37
2022-09-28T00:10:32.624Z,8.36
2022-09-28T00:13:01.292Z,8.34
2022-09-28T00:15:27.696Z,8.33
2022-09-28T00:17:54.061Z,8.33
2022-09-28T00:20:22.142Z,8.29
2022-09-28T00:22:48.651Z,8.27
2022-09-28T00:25:16.847Z,8.26
2022-09-28T00:27:43.292Z,8.25
2022-09-28T00:30:10.064Z,8.23
2022-09-28T00:32:36.472Z,8.24
2022-09-28T00:35:02.869Z,8.23
2022-09-28T00:37:30.090Z,8.20
2022-09-28T00:39:56.965Z,8.19
2022-09-28T00:42:25.935Z,8.17
2022-09-28T00:44:59.474Z,8.19
2022-09-28T00:47:39.799Z,8.20
2022-09-28T00:50:31.705Z,8.18
2022-09-28T00:53:07.861Z,8.14
2022-09-28T00:55:50.232Z,8.13
2022-09-28T00:58:25.428Z,8.11
2022-09-28T01:00:54.833Z,8.11
2022-09-28T01:03:21.429Z,8.10
2022-09-28T01:05:50.600Z,8.08
2022-09-28T01:08:21.062Z,8.06
2022-09-28T01:10:51.271Z,8.08
2022-09-28T01:13:18.865Z,8.06
2022-09-28T01:15:58.955Z,8.10
2022-09-28T01:18:39.697Z,8.12
2022-09-28T01:21:20.810Z,8.12
2022-09-28T01:24:10.282Z,8.06
2022-09-28T01:26:47.788Z,8.05
2022-09-28T01:29:40.443Z,8.03
2022-09-28T01:32:14.129Z,7.96
2022-09-28T01:34:55.298Z,8.00
2022-09-28T01:37:29.240Z,8.03
2022-09-28T01:39:57.623Z,7.99
2022-09-28T01:42:29.821Z,8.00
2022-09-28T01:45:03.722Z,8.01
2022-09-28T01:47:36.807Z,8.02
2022-09-28T01:50:10.700Z,8.00
2022-09-28T01:53:06.234Z,8.01
2022-09-28T01:55:42.119Z,8.00
2022-09-28T01:58:26.699Z,8.00
2022-09-28T02:00:59.758Z,7.91
2022-09-28T02:03:40.037Z,7.91
2022-09-28T02:06:15.014Z,7.88
2022-09-28T02:08:50.551Z,7.85
2022-09-28T02:11:19.247Z,7.87
2022-09-28T02:13:54.045Z,7.86
2022-09-28T02:16:42.400Z,7.88
2022-09-28T02:19:13.739Z,7.86
2022-09-28T02:21:53.728Z,7.85
2022-09-28T02:24:38.746Z,7.84
2022-09-28T02:27:17.127Z,7.84
2022-09-28T02:29:43.580Z,7.83
2022-09-28T02:32:10.951Z,7.79
2022-09-28T02:34:37.359Z,7.79
2022-09-28T02:37:03.831Z,7.80
2022-09-28T02:39:30.198Z,7.80
2022-09-28T02:42:10.297Z,7.80
2022-09-28T02:44:36.733Z,7.75
2022-09-28T02:47:14.918Z,7.76
2022-09-28T02:50:06.697Z,7.76
2022-09-28T02:52:51.889Z,7.74
2022-09-28T02:55:35.441Z,7.74
2022-09-28T02:58:32.892Z,7.76
2022-09-28T03:01:17.682Z,7.76
2022-09-28T03:04:10.089Z,7.77
2022-09-28T03:06:51.683Z,7.75
2022-09-28T03:09:29.031Z,7.71
2022-09-28T03:12:05.664Z,7.72
2022-09-28T03:14:32.089Z,7.68
2022-09-28T03:16:58.469Z,7.68
2022-09-28T03:19:30.431Z,7.68
2022-09-28T03:21:56.827Z,7.66
2022-09-28T03:24:23.229Z,7.67
2022-09-28T03:26:49.616Z,7.66
2022-09-28T03:29:16.250Z,7.66
2022-09-28T03:31:44.170Z,7.66
2022-09-28T03:34:10.628Z,7.65
2022-09-28T03:36:37.145Z,7.63
2022-09-28T03:39:04.376Z,7.64
2022-09-28T03:41:30.847Z,7.63
2022-09-28T03:43:57.187Z,7.63
2022-09-28T03:46:23.717Z,7.60
2022-09-28T03:48:50.111Z,7.61
2022-09-28T03:51:16.481Z,7.59
2022-09-28T03:53:42.843Z,7.59
2022-09-28T03:56:14.162Z,7.61
2022-09-28T03:58:40.710Z,7.56
2022-09-28T04:01:16.460Z,7.58
2022-09-28T04:03:44.695Z,7.56
2022-09-28T04:06:11.593Z,7.55
2022-09-28T04:08:38.496Z,7.55
2022-09-28T04:11:05.325Z,7.52
2022-09-28T04:13:32.025Z,7.51
2022-09-28T04:16:00.926Z,7.49
2022-09-28T04:18:27.819Z,7.50
2022-09-28T04:21:03.650Z,7.51
2022-09-28T04:23:30.584Z,7.48
2022-09-28T04:25:57.050Z,7.47
2022-09-28T04:28:41.775Z,7.47
2022-09-28T04:31:10.865Z,7.43
2022-09-28T04:33:38.480Z,7.41
2022-09-28T04:36:05.921Z,7.39
2022-09-28T04:38:51.972Z,7.36
2022-09-28T04:41:20.074Z,7.35
2022-09-28T04:43:47.200Z,7.34
2022-09-28T04:46:14.419Z,7.29
2022-09-28T04:48:41.727Z,7.28
2022-09-28T04:51:08.162Z,7.25
2022-09-28T04:53:35.093Z,7.22
2022-09-28T04:56:02.644Z,7.21
2022-09-28T04:58:29.998Z,7.20
2022-09-28T05:01:02.433Z,7.19
2022-09-28T05:03:29.240Z,7.18
2022-09-28T05:05:55.733Z,7.13
2022-09-28T05:08:22.404Z,7.10
2022-09-28T05:10:49.142Z,7.09
2022-09-28T05:13:15.579Z,7.09
2022-09-28T05:15:42.800Z,7.08
2022-09-28T05:18:09.229Z,7.05
2022-09-28T05:20:41.070Z,7.02
2022-09-28T05:23:12.278Z,7.02
2022-09-28T05:25:42.192Z,7.03
2022-09-28T05:28:08.735Z,7.04
2022-09-28T05:30:35.712Z,7.03
2022-09-28T05:33:03.324Z,7.03
2022-09-28T05:35:29.971Z,7.04
2022-09-28T05:37:57.313Z,7.04
2022-09-28T05:40:23.896Z,7.05
2022-09-28T05:42:50.340Z,7.06
2022-09-28T05:45:16.897Z,7.05
2022-09-28T05:47:45.979Z,7.07
2022-09-28T05:50:15.840Z,7.08
2022-09-28T05:52:43.414Z,7.02
2022-09-28T05:55:10.252Z,7.04
2022-09-28T05:57:36.759Z,7.04
2022-09-28T06:00:08.984Z,7.09
2022-09-28T06:02:35.626Z,7.11
2022-09-28T06:05:02.013Z,7.06
2022-09-28T06:07:28.401Z,7.07
2022-09-28T06:09:54.839Z,7.09
2022-09-28T06:12:24.248Z,7.12
2022-09-28T06:14:50.596Z,7.15
2022-09-28T06:17:16.994Z,7.14
2022-09-28T06:19:44.107Z,7.12
2022-09-28T06:22:10.497Z,7.15
2022-09-28T06:24:36.815Z,7.21
2022-09-28T06:27:03.276Z,7.24
2022-09-28T06:29:29.873Z,7.28
2022-09-28T06:31:56.248Z,7.33
2022-09-28T06:34:24.625Z,7.37
2022-09-28T06:36:51.259Z,7.43
2022-09-28T06:39:17.894Z,7.47
2022-09-28T06:41:44.296Z,7.52
2022-09-28T06:44:10.758Z,7.58
2022-09-28T06:46:39.287Z,7.64
2022-09-28T06:49:09.137Z,7.70
2022-09-28T06:51:36.618Z,7.79
2022-09-28T06:54:03.591Z,7.85
2022-09-28T06:56:32.925Z,7.91
2022-09-28T06:58:59.831Z,7.99
2022-09-28T07:01:26.262Z,8.08
2022-09-28T07:03:55.635Z,8.16
2022-09-28T07:06:24.194Z,8.23
2022-09-28T07:09:05.098Z,8.31
2022-09-28T07:11:41.676Z,8.43
2022-09-28T07:14:12.333Z,8.52
2022-09-28T07:17:10.113Z,8.66
2022-09-28T07:19:28.714Z,8.84
2022-09-28T07:22:03.989Z,8.93
2022-09-28T07:24:31.262Z,9.05
2022-09-28T07:26:57.677Z,9.13
2022-09-28T07:29:24.009Z,9.24
2022-09-28T07:31:53.474Z,9.34
2022-09-28T07:34:23.460Z,9.39
2022-09-28T07:36:50.226Z,9.48
2022-09-28T07:39:16.810Z,9.56
2022-09-28T07:41:44.229Z,9.61
2022-09-28T07:44:10.687Z,9.65
2022-09-28T07:46:37.190Z,9.71
2022-09-28T07:49:08.417Z,9.75
2022-09-28T07:51:37.905Z,9.82
2022-09-28T07:54:05.821Z,9.88
2022-09-28T07:56:33.888Z,9.93
2022-09-28T07:59:00.309Z,9.98
2022-09-28T08:03:56.079Z,10.11
2022-09-28T08:06:23.185Z,10.19
2022-09-28T08:08:50.386Z,10.28
2022-09-28T08:11:18.773Z,10.39
2022-09-28T08:13:46.479Z,10.47
2022-09-28T08:16:13.459Z,10.49
2022-09-28T08:18:40.072Z,10.57
2022-09-28T08:21:25.784Z,10.61
2022-09-28T08:23:53.068Z,10.68
2022-09-28T08:26:19.905Z,10.76
2022-09-28T08:28:47.940Z,10.85
2022-09-28T08:31:14.540Z,10.87
2022-09-28T08:33:42.383Z,10.90
2022-09-28T08:36:10.205Z,10.97
2022-09-28T08:38:36.709Z,11.02
2022-09-28T08:41:24.548Z,11.09
2022-09-28T08:44:00.608Z,11.13
2022-09-28T08:46:36.393Z,11.18
2022-09-28T08:49:26.290Z,11.26
2022-09-28T08:52:24.487Z,11.33
2022-09-28T08:55:04.388Z,11.40
2022-09-28T08:57:37.861Z,11.49
2022-09-28T09:00:09.640Z,11.57
2022-09-28T09:02:39.776Z,11.60
2022-09-28T09:05:14.910Z,11.70
2022-09-28T09:07:44.809Z,11.80
2022-09-28T09:10:57.857Z,11.92
2022-09-28T09:13:43.018Z,12.01
2022-09-28T09:16:34.534Z,12.04
2022-09-28T09:19:26.129Z,12.11
2022-09-28T09:22:03.176Z,12.22
2022-09-28T09:24:48.644Z,12.30
2022-09-28T09:27:15.010Z,12.26
2022-09-28T09:30:20.446Z,12.36
2022-09-28T09:32:57.777Z,12.46
2022-09-28T09:35:52.428Z,12.33
2022-09-28T09:38:44.387Z,12.19
2022-09-28T09:41:26.590Z,12.26
2022-09-28T09:43:58.977Z,12.45
2022-09-28T09:46:35.500Z,12.62
2022-09-28T09:49:08.266Z,12.73
2022-09-28T09:51:59.841Z,12.70
2022-09-28T09:54:34.247Z,12.75
2022-09-28T09:57:17.976Z,12.89
2022-09-28T09:59:48.227Z,13.05
2022-09-28T10:02:22.308Z,13.14
2022-09-28T10:04:52.804Z,13.17
2022-09-28T10:07:25.298Z,13.21
2022-09-28T10:09:58.278Z,13.20
2022-09-28T10:12:25.687Z,13.21
2022-09-28T10:14:53.106Z,13.25
2022-09-28T10:17:26.629Z,13.39
2022-09-28T10:19:56.060Z,13.50
2022-09-28T10:22:25.271Z,13.53
2022-09-28T10:24:57.675Z,13.59
2022-09-28T10:27:28.292Z,13.63
2022-09-28T10:30:00.213Z,13.63
2022-09-28T10:32:36.747Z,13.67
2022-09-28T10:35:15.001Z,13.49
2022-09-28T10:38:04.887Z,13.48
2022-09-28T10:40:46.450Z,13.55
2022-09-28T10:43:25.329Z,13.48
2022-09-28T10:46:07.012Z,13.71
2022-09-28T10:48:49.381Z,14.03
2022-09-28T10:51:17.279Z,13.90
2022-09-28T10:54:02.575Z,13.87
2022-09-28T10:56:35.948Z,13.87
2022-09-28T10:59:22.367Z,13.76
2022-09-28T11:02:04.658Z,13.54
2022-09-28T11:04:40.655Z,13.33
2022-09-28T11:07:18.465Z,13.39
2022-09-28T11:09:50.476Z,13.38
2022-09-28T11:12:23.999Z,13.53
2022-09-28T11:14:58.063Z,13.77
2022-09-28T11:17:27.231Z,14.02
2022-09-28T11:19:55.525Z,14.23
2022-09-28T11:22:41.756Z,14.33
2022-09-28T11:25:17.365Z,14.45
2022-09-28T11:27:53.136Z,14.59
2022-09-28T11:30:24.635Z,14.72
2022-09-28T11:32:54.050Z,14.86
2022-09-28T11:35:35.698Z,14.96
2022-09-28T11:38:14.987Z,14.98
2022-09-28T11:41:05.642Z,14.73
2022-09-28T11:43:54.158Z,14.52
2022-09-28T11:47:12.006Z,14.72
2022-09-28T11:49:48.332Z,14.89
2022-09-28T11:52:36.300Z,14.89
2022-09-28T11:55:31.912Z,14.73
2022-09-28T11:58:27.867Z,14.57
2022-09-28T12:01:08.811Z,14.48
2022-09-28T12:03:50.845Z,14.40
2022-09-28T12:06:31.147Z,14.37
2022-09-28T12:09:09.253Z,14.38
2022-09-28T12:11:43.831Z,14.33
2022-09-28T12:14:19.246Z,14.21
2022-09-28T12:17:05.649Z,13.90
2022-09-28T12:19:42.529Z,13.40
2022-09-28T12:22:22.151Z,12.98
2022-09-28T12:24:52.643Z,12.60
2022-09-28T12:27:30.201Z,12.33
2022-09-28T12:30:14.202Z,12.12
2022-09-28T12:32:50.426Z,11.95
2022-09-28T12:35:57.910Z,11.93
2022-09-28T12:39:08.762Z,11.93
2022-09-28T12:41:59.104Z,11.94
2022-09-28T12:44:43.617Z,11.95
2022-09-28T12:47:32.112Z,11.89
2022-09-28T12:53:54.486Z,11.86
2022-09-28T12:56:43.696Z,11.85
2022-09-28T12:59:25.715Z,11.86
2022-09-28T13:02:20.172Z,11.96
2022-09-28T13:04:49.958Z,11.97
2022-09-28T13:07:20.365Z,11.96
2022-09-28T13:09:59.203Z,12.02
2022-09-28T13:12:34.861Z,12.03
2022-09-28T13:15:08.641Z,12.15
2022-09-28T13:18:00.332Z,12.31
2022-09-28T13:20:39.934Z,12.46
2022-09-28T13:23:16.415Z,12.63
2022-09-28T13:25:50.981Z,12.89
2022-09-28T13:28:29.786Z,13.01
2022-09-28T13:33:38.722Z,13.07
2022-09-28T13:36:33.200Z,13.12
2022-09-28T13:39:00.867Z,13.13
2022-09-28T13:41:43.624Z,13.20
2022-09-28T13:44:13.278Z,13.23
2022-09-28T13:46:52.805Z,13.26
2022-09-28T13:49:40.056Z,13.28
2022-09-28T13:52:32.028Z,13.30
2022-09-28T13:55:28.864Z,13.38
2022-09-28T13:58:06.934Z,13.33
2022-09-28T14:00:58.595Z,13.30
2022-09-28T14:03:42.795Z,13.24
2022-09-28T14:06:22.805Z,13.22
2022-09-28T14:09:23.815Z,13.20
2022-09-28T14:11:58.254Z,13.17
2022-09-28T14:14:26.016Z,13.14
2022-09-28T14:17:18.867Z,13.15
2022-09-28T14:19:51.598Z,13.09
2022-09-28T14:22:36.511Z,13.04
2022-09-28T14:25:17.085Z,12.93
2022-09-28T14:28:00.156Z,12.80
2022-09-28T14:30:48.291Z,12.72
2022-09-28T14:33:20.474Z,12.55
2022-09-28T14:36:01.961Z,12.49
2022-09-28T14:39:02.454Z,12.35
2022-09-28T14:41:34.464Z,12.31
2022-09-28T14:44:08.559Z,12.23
2022-09-28T14:46:45.719Z,12.24
2022-09-28T14:49:19.377Z,12.29
2022-09-28T14:51:48.464Z,12.21
2022-09-28T14:54:19.790Z,12.17
2022-09-28T14:56:52.376Z,12.14
2022-09-28T14:59:24.764Z,12.11
2022-09-28T15:02:00.830Z,12.08
2022-09-28T15:04:30.541Z,12.06
2022-09-28T15:07:00.147Z,12.07
2022-09-28T15:09:32.300Z,12.07
2022-09-28T15:12:16.344Z,12.04
2022-09-28T15:14:51.387Z,12.00
2022-09-28T15:17:22.006Z,11.99
2022-09-28T15:19:54.239Z,11.97
2022-09-28T15:22:21.064Z,11.95
2022-09-28T15:25:01.351Z,11.93
2022-09-28T15:27:36.420Z,11.92
2022-09-28T15:30:20.276Z,11.92
2022-09-28T15:32:46.700Z,11.85
2022-09-28T15:35:20.402Z,11.78
2022-09-28T15:37:51.840Z,11.75
2022-09-28T15:40:28.436Z,11.76
2022-09-28T15:42:59.096Z,11.76
2022-09-28T15:45:37.901Z,11.79
2022-09-28T15:48:33.207Z,11.86
2022-09-28T15:51:06.111Z,11.84
2022-09-28T15:53:33.424Z,11.80
2022-09-28T15:56:05.552Z,11.76
2022-09-28T15:58:32.185Z,11.73
2022-09-28T16:01:39.202Z,11.77
2022-09-28T16:04:43.240Z,11.79
2022-09-28T16:07:12.393Z,11.68
2022-09-28T16:10:01.887Z,11.71
2022-09-28T16:12:40.673Z,11.73
2022-09-28T16:15:20.379Z,11.78
2022-09-28T16:18:06.892Z,11.80
2022-09-28T16:20:36.881Z,11.80
2022-09-28T16:23:19.110Z,11.82
2022-09-28T16:25:53.810Z,11.81
2022-09-28T16:28:51.961Z,11.89
2022-09-28T16:31:18.347Z,11.92
2022-09-28T16:33:53.644Z,11.99
2022-09-28T16:36:22.409Z,12.03
2022-09-28T16:38:49.367Z,12.04
2022-09-28T16:41:19.549Z,12.04
2022-09-28T16:43:46.561Z,12.01
2022-09-28T16:46:17.397Z,12.04
2022-09-28T16:48:49.071Z,12.01
2022-09-28T16:51:20.757Z,11.99
2022-09-28T16:54:06.611Z,11.91
2022-09-28T16:56:35.150Z,11.86
2022-09-28T16:59:04.919Z,11.82
2022-09-28T17:01:31.623Z,11.73
2022-09-28T17:03:58.114Z,11.70
2022-09-28T17:06:27.764Z,11.70
2022-09-28T17:08:58.613Z,11.70
2022-09-28T17:11:25.352Z,11.61
2022-09-28T17:13:52.283Z,11.56
2022-09-28T17:16:36.701Z,11.56
2022-09-28T17:19:18.621Z,11.54
2022-09-28T17:21:45.653Z,11.50
2022-09-28T17:24:12.116Z,11.46
2022-09-28T17:26:39.232Z,11.46
2022-09-28T17:29:08.678Z,11.44
2022-09-28T17:31:35.064Z,11.39
2022-09-28T17:34:01.628Z,11.40
2022-09-28T17:36:29.082Z,11.39
2022-09-28T17:38:56.782Z,11.35
2022-09-28T17:41:23.145Z,11.33
2022-09-28T17:43:49.702Z,11.31
2022-09-28T17:46:33.446Z,11.30
2022-09-28T17:49:02.960Z,11.30
2022-09-28T17:51:32.249Z,11.30
2022-09-28T17:54:00.809Z,11.28
2022-09-28T17:56:31.944Z,11.24
2022-09-28T17:59:01.289Z,11.24
2022-09-28T18:01:33.737Z,11.21
2022-09-28T18:04:02.178Z,11.21
2022-09-28T18:06:34.817Z,11.17
2022-09-28T18:09:04.920Z,11.16
2022-09-28T18:11:32.667Z,11.13
2022-09-28T18:14:00.495Z,11.09
2022-09-28T18:16:29.868Z,11.07
2022-09-28T18:18:58.097Z,11.05
2022-09-28T18:21:24.593Z,11.04
2022-09-28T18:23:51.147Z,11.00
2022-09-28T18:26:19.515Z,11.00
2022-09-28T18:28:46.058Z,10.99
2022-09-28T18:31:15.003Z,11.00
2022-09-28T18:33:41.591Z,10.98
2022-09-28T18:36:36.408Z,11.02
2022-09-28T18:39:06.434Z,10.96
2022-09-28T18:41:33.252Z,10.90
2022-09-28T18:44:17.620Z,10.94
2022-09-28T18:46:58.751Z,10.96
2022-09-28T18:49:30.645Z,10.91
2022-09-28T18:52:05.455Z,10.91
2022-09-28T18:54:33.206Z,10.87
2022-09-28T18:57:10.047Z,10.87
2022-09-28T18:59:39.292Z,10.80
2022-09-28T19:02:12.843Z,10.79
2022-09-28T19:10:07.616Z,10.79
2022-09-28T19:12:34.123Z,10.75
2022-09-28T19:15:00.628Z,10.74
2022-09-28T19:17:27.319Z,10.69
2022-09-28T19:19:53.905Z,10.69
2022-09-28T19:22:20.550Z,10.68
2022-09-28T19:24:47.023Z,10.67
2022-09-28T19:27:13.758Z,10.65
2022-09-28T19:29:40.237Z,10.64
2022-09-28T19:32:06.782Z,10.59
2022-09-28T19:34:33.218Z,10.58
2022-09-28T19:37:03.902Z,10.59
2022-09-28T19:39:31.006Z,10.57
2022-09-28T19:41:57.828Z,10.59
2022-09-28T19:44:27.010Z,10.57
2022-09-28T19:47:08.268Z,10.57
2022-09-28T19:49:37.212Z,10.48
2022-09-28T19:52:15.949Z,10.46
2022-09-28T19:54:56.774Z,10.42
2022-09-28T19:57:26.106Z,10.38
2022-09-28T19:59:55.792Z,10.39
2022-09-28T20:02:28.163Z,10.37
2022-09-28T20:04:57.605Z,10.36
2022-09-28T20:07:24.299Z,10.35
2022-09-28T20:09:53.639Z,10.35
2022-09-28T20:12:20.182Z,10.34
2022-09-28T20:14:50.144Z,10.30
2022-09-28T20:17:20.354Z,10.26
2022-09-28T20:19:48.781Z,10.24
2022-09-28T20:22:18.644Z,10.19
2022-09-28T20:24:48.131Z,10.16
2022-09-28T20:27:15.168Z,10.12
2022-09-28T20:29:44.922Z,10.05
2022-09-28T20:32:13.767Z,9.98
2022-09-28T20:34:40.803Z,9.92
2022-09-28T20:37:07.860Z,9.90
2022-09-28T20:39:40.355Z,9.86
2022-09-28T20:42:09.721Z,9.82
2022-09-28T20:44:36.184Z,9.80
2022-09-28T20:47:02.708Z,9.83
2022-09-28T20:49:29.764Z,9.75
2022-09-28T20:51:56.144Z,9.76
2022-09-28T20:54:25.680Z,9.79
2022-09-28T20:56:52.239Z,9.79
2022-09-28T20:59:24.574Z,9.79
2022-09-28T21:01:54.954Z,9.78
2022-09-28T21:04:21.728Z,9.76
2022-09-28T21:06:48.587Z,9.73
2022-09-28T21:09:14.973Z,9.73
2022-09-28T21:11:41.797Z,9.65
2022-09-28T21:14:10.364Z,9.59
2022-09-28T21:16:37.612Z,9.62
2022-09-28T21:19:04.273Z,9.63
2022-09-28T21:21:31.288Z,9.63
2022-09-28T21:23:58.910Z,9.57
2022-09-28T21:26:28.045Z,9.59
2022-09-28T21:29:03.784Z,9.61
2022-09-28T21:31:36.862Z,9.58
2022-09-28T21:34:04.887Z,9.57
2022-09-28T21:36:31.955Z,9.53
2022-09-28T21:38:58.848Z,9.53
2022-09-28T21:41:25.772Z,9.50
2022-09-28T21:43:52.942Z,9.49
2022-09-28T21:46:19.992Z,9.42
2022-09-28T21:48:46.513Z,9.42
2022-09-28T21:51:14.751Z,9.36
2022-09-28T21:53:41.319Z,9.33
2022-09-28T21:56:10.717Z,9.33
2022-09-28T21:58:37.719Z,9.27
2022-09-28T22:01:09.086Z,9.27
2022-09-28T22:03:37.108Z,9.26
2022-09-28T22:06:04.956Z,9.29
2022-09-28T22:08:31.870Z,9.32
2022-09-28T22:11:02.549Z,9.27
2022-09-28T22:13:30.347Z,9.23
2022-09-28T22:16:00.096Z,9.23
2022-09-28T22:18:28.122Z,9.24
2022-09-28T22:21:22.390Z,9.24
2022-09-28T22:23:49.772Z,9.17
2022-09-28T22:26:25.609Z,9.14
2022-09-28T22:28:57.973Z,9.11
2022-09-28T22:31:27.243Z,9.10
2022-09-28T22:33:54.155Z,9.06
2022-09-28T22:36:21.017Z,9.03
2022-09-28T22:38:49.030Z,9.04
2022-09-28T22:41:18.747Z,9.04
2022-09-28T22:43:45.228Z,9.00
2022-09-28T22:46:15.114Z,9.00
2022-09-28T22:48:44.542Z,8.97
2022-09-28T22:51:11.059Z,8.88
2022-09-28T22:53:37.949Z,8.84
2022-09-28T22:56:06.029Z,8.70
2022-09-28T22:58:33.731Z,8.63
2022-09-28T23:01:10.925Z,8.59
2022-09-28T23:03:40.102Z,8.52
2022-09-28T23:06:08.210Z,8.47
2022-09-28T23:08:35.374Z,8.47
2022-09-28T23:11:02.400Z,8.45
2022-09-28T23:13:31.034Z,8.40
2022-09-28T23:15:59.230Z,8.39
2022-09-28T23:18:29.031Z,8.38
2022-09-28T23:20:57.085Z,8.37
2022-09-28T23:23:23.797Z,8.34
2022-09-28T23:25:51.471Z,8.34
2022-09-28T23:28:19.923Z,8.36
2022-09-28T23:30:47.243Z,8.37
2022-09-28T23:33:18.965Z,8.34
2022-09-28T23:35:45.432Z,8.30
2022-09-28T23:38:13.610Z,8.30
2022-09-28T23:40:41.826Z,8.30
2022-09-28T23:43:08.563Z,8.29
2022-09-28T23:45:35.032Z,8.27
2022-09-28T23:48:01.987Z,8.24
2022-09-28T23:50:28.645Z,8.24
2022-09-28T23:52:55.131Z,8.21
2022-09-28T23:55:21.541Z,8.18
2022-09-28T23:57:47.998Z,8.16
